HECA/CAI METAR and TAF weather

Enter ICAO airport designator
Station Type Date Time Source
HECA METAR 2020/08/15 09:30 UTC NOAA

HECA 150930Z 33005KT 9999 SCT025 32/19 Q1006 NOSIG


Station Type Date Time Source
HECA Decoded METAR 2020/08/15 09:30 UTC NOAA

Cairo Airport, Egypt (HECA) 30-08N 031-24E 74M
Aug 15, 2020 - 05:30 AM EDT / 2020.08.15 0930 UTC
Wind: from the NNW (330 degrees) at 6 MPH (5 KT):0
Visibility: greater than 7 mile(s):0
Sky conditions: partly cloudy
Temperature: 89 F (32 C)
Dew Point: 66 F (19 C)
Relative Humidity: 46%
Pressure (altimeter): 29.71 in. Hg (1006 hPa)
ob: HECA 150930Z 33005KT 9999 SCT025 32/19 Q1006 NOSIG
cycle: 9

Station Type Date Time Source
HECA TAF 2020/08/15 06:40 UTC NOAA

TAF HECA 150500Z 1506/1612 33008KT 6000 NSC
TEMPO 1506/1508 VRB03KT 4000BR
BECMG 1508/1810 35010KT CAVOK

Example: see airport list